Maud, Oklahoma
Current Conditions -  °F | °C
As of 10:15 AM on Wednesday 28 Jan 2015 (Local Time) from KSNL Reporting Station
Clear Clear  
Wind Chill: 68°   Ceiling: Unl
Heat Index: 68°   Visibility: 10mi
Dew Point: 46°   Wind: 9mph
Humidity: 46%   Direction: 190°S
Pressure: 30.04"   Gusts: NA
Location:  35.13°N, 96.78°W
Report Text: KSNL 281615Z AUTO 19008KT 10SM CLR 20/08 A3004 RMK AO2
Loading
Personal Weather Stations






























Interactive Weather Map New forecast layout! Learn more

10-Day Weather Forecast

Advertisements
Track Severe Weather on mobile